X  Lukk Metar værinformasjon om luftfart     LEGR F.G.L. Airport Granada-Jaén Airport
Temperatur
86°F Temperatur
50°F Duggpunkt
29% Luftfuktighet



Vind
12 MPT
19 KM/T
5 M/S
10 KNP



140°
Nåværende forhold

Klart Klart
Trykk 1013.88 (hPa) - 29.94 (inHg)
Sikt 6 (mil) - 9.7 (km)
Flyplass
Flyplass-kode LEGR

Plassering: F.G.L. Airport Granada-Jaén Airport
Avstand: 138 (mi)

Metar:
LEGR 240930Z 14010KT 100V190 CAVOK 30/10 Q1014

Tid: 24-06-2024 11:30 CEST